Time;durP1;ratioP1;P1;durP2;ratioP2;P2;SDS_P1;SDS_P2;PMS_P1;PMS_P2;Temp;Humidity;BMP_temperature;BMP_pressure;BME280_temperature;BME280_humidity;BME280_pressure;Samples;Min_cycle;Max_cycle;Signal;HPM_P1;HPM_P2
2022/04/23 00:01:55;;;;;;;11.68;8.50;;;;;;;8.10;75.17;99157.08;1660254;85;22199;-75
2022/04/23 00:04:22;;;;;;;11.20;8.70;;;;;;;8.08;75.28;99151.89;1631491;87;21075;-74
2022/04/23 00:06:48;;;;;;;13.65;9.58;;;;;;;8.07;75.08;99150.19;1676228;84;21096;-74
2022/04/23 00:09:16;;;;;;;11.75;8.75;;;;;;;8.06;75.14;99143.69;1657779;85;21138;-75
2022/04/23 00:11:43;;;;;;;12.10;8.78;;;;;;;8.05;75.14;99131.02;1680521;84;21135;-75
2022/04/23 00:14:11;;;;;;;11.73;8.80;;;;;;;8.06;75.22;99128.81;1680307;83;21551;-75
2022/04/23 00:16:39;;;;;;;14.23;8.78;;;;;;;8.06;75.12;99126.66;1657185;85;21182;-75
2022/04/23 00:19:06;;;;;;;11.73;8.23;;;;;;;8.03;75.20;99127.59;1627787;87;21189;-75
2022/04/23 00:21:33;;;;;;;10.20;8.20;;;;;;;8.02;75.19;99129.83;1625752;87;21151;-75
2022/04/23 00:24:01;;;;;;;11.63;8.20;;;;;;;7.99;75.37;99128.14;1677550;84;21034;-74
2022/04/23 00:26:30;;;;;;;15.48;8.33;;;;;;;8.01;75.35;99130.72;1673801;84;21096;-75
2022/04/23 00:28:56;;;;;;;9.00;7.75;;;;;;;8.03;75.39;99128.05;1672751;84;21073;-75
2022/04/23 00:31:25;;;;;;;10.15;8.43;;;;;;;8.00;75.44;99128.98;1680201;84;21151;-75
2022/04/23 00:33:53;;;;;;;12.78;8.43;;;;;;;7.99;75.41;99120.74;1674720;84;21307;-74
2022/04/23 00:36:23;;;;;;;10.50;8.50;;;;;;;7.99;75.59;99114.20;1681190;84;21349;-75
2022/04/23 00:38:51;;;;;;;12.80;8.50;;;;;;;7.97;75.68;99114.70;1683040;84;21132;-74
2022/04/23 00:44:02;;;;;;;9.93;8.78;;;;;;;7.96;75.79;99123.45;1677212;84;21652;-75
2022/04/23 00:46:30;;;;;;;10.85;8.73;;;;;;;7.94;75.86;99104.31;1676738;84;21176;-74
2022/04/23 00:49:03;;;;;;;13.03;8.45;;;;;;;7.90;75.99;99093.07;1680877;84;21123;-76
2022/04/23 00:51:29;;;;;;;10.08;7.67;;;;;;;7.89;76.14;99085.26;1677010;84;21608;-75
2022/04/23 00:53:56;;;;;;;9.55;8.18;;;;;;;7.87;76.31;99084.42;1680468;84;21080;-75
2022/04/23 00:56:23;;;;;;;10.30;8.00;;;;;;;7.84;76.49;99087.16;1670569;84;21172;-75
2022/04/23 00:58:50;;;;;;;10.05;8.33;;;;;;;7.81;76.50;99083.70;1674164;84;21134;-75
2022/04/23 01:01:23;;;;;;;11.22;7.45;;;;;;;7.77;76.70;99086.03;1677885;84;21047;-76
2022/04/23 01:03:50;;;;;;;11.12;7.45;;;;;;;7.77;76.78;99089.95;1692839;84;21549;-75
2022/04/23 01:06:19;;;;;;;7.62;6.85;;;;;;;7.76;76.79;99085.61;1689640;84;21086;-75
2022/04/23 01:08:47;;;;;;;8.25;6.95;;;;;;;7.74;76.81;99082.19;1688185;84;21115;-75
2022/04/23 01:11:14;;;;;;;11.80;7.10;;;;;;;7.72;76.96;99072.67;1691121;84;21483;-76
2022/04/23 01:13:45;;;;;;;8.35;6.85;;;;;;;7.68;76.86;99082.36;1686117;84;21888;-74
2022/04/23 01:16:10;;;;;;;12.78;7.03;;;;;;;7.66;76.87;99072.84;1686181;83;21130;-74
2022/04/23 01:18:42;;;;;;;9.00;6.37;;;;;;;7.63;76.92;99076.40;1640817;84;21115;-75
2022/04/23 01:21:10;;;;;;;9.28;6.67;;;;;;;7.59;76.98;99065.63;1645205;85;21079;-75
2022/04/23 01:23:41;;;;;;;9.08;6.62;;;;;;;7.55;77.02;99062.70;1664879;84;21057;-74
2022/04/23 01:26:09;;;;;;;8.48;6.53;;;;;;;7.51;76.98;99068.92;1645597;84;21858;-74
2022/04/23 01:28:37;;;;;;;8.28;6.05;;;;;;;7.51;76.99;99068.92;1629691;87;21097;-75
2022/04/23 01:31:05;;;;;;;7.17;6.30;;;;;;;7.46;76.98;99065.58;1687422;84;21067;-75
2022/04/23 01:33:33;;;;;;;7.53;6.22;;;;;;;7.41;77.11;99066.59;1690019;84;21123;-75
2022/04/23 01:36:02;;;;;;;11.18;6.40;;;;;;;7.38;77.09;99060.12;1692046;84;21130;-74
2022/04/23 01:38:30;;;;;;;7.12;5.53;;;;;;;7.37;77.15;99059.70;1667957;84;21324;-75
2022/04/23 01:40:57;;;;;;;7.58;5.97;;;;;;;7.37;77.04;99074.56;1675788;84;21355;-75
2022/04/23 01:43:23;;;;;;;6.42;5.78;;;;;;;7.33;76.98;99065.95;1666526;84;20980;-75
2022/04/23 01:45:51;;;;;;;6.45;5.80;;;;;;;7.32;77.08;99061.59;1667061;84;21075;-76
2022/04/23 01:48:18;;;;;;;5.92;5.33;;;;;;;7.29;77.13;99064.30;1681787;84;21183;-76
2022/04/23 01:50:44;;;;;;;5.83;5.22;;;;;;;7.29;77.23;99067.38;1655660;84;21158;-75
2022/04/23 01:53:11;;;;;;;7.03;5.22;;;;;;;7.27;77.23;99066.11;1675830;84;21104;-76
2022/04/23 01:55:38;;;;;;;5.97;5.47;;;;;;;7.24;77.35;99063.58;1680420;84;21091;-75
2022/04/23 01:58:05;;;;;;;7.08;5.85;;;;;;;7.24;77.40;99063.58;1657235;84;21051;-74
2022/04/23 02:00:33;;;;;;;7.17;5.75;;;;;;;7.23;77.53;99059.27;1679954;84;21125;-75
2022/04/23 02:03:00;;;;;;;6.10;5.17;;;;;;;7.22;77.60;99057.53;1658771;85;21224;-75
2022/04/23 02:05:28;;;;;;;6.25;5.65;;;;;;;7.20;77.63;99051.03;1678489;84;21548;-75
2022/04/23 02:07:55;;;;;;;7.08;5.85;;;;;;;7.18;77.79;99059.84;1681997;84;21396;-74
2022/04/23 02:10:21;;;;;;;6.45;5.40;;;;;;;7.16;78.00;99057.70;1666614;85;21432;-75
2022/04/23 02:12:49;;;;;;;8.38;5.47;;;;;;;7.13;78.05;99057.77;1680405;84;21053;-75
2022/04/23 02:15:16;;;;;;;6.05;5.05;;;;;;;7.13;78.14;99053.42;1674822;84;21252;-75
2022/04/23 02:17:45;;;;;;;7.75;5.80;;;;;;;7.12;78.33;99052.16;1675036;84;21172;-75
2022/04/23 02:20:15;;;;;;;6.00;5.50;;;;;;;7.09;78.47;99046.55;1682135;84;21047;-75
2022/04/23 02:22:43;;;;;;;9.93;5.30;;;;;;;7.07;78.59;99045.27;1682896;84;22427;-75
2022/04/23 02:25:09;;;;;;;8.00;5.03;;;;;;;7.04;78.84;99044.08;1675217;84;21029;-75
2022/04/23 02:27:44;;;;;;;7.17;5.20;;;;;;;7.01;79.10;99052.01;1674238;84;21351;-73
2022/04/23 02:30:14;;;;;;;5.62;5.12;;;;;;;6.99;79.23;99060.78;1678422;84;21132;-75
2022/04/23 02:32:42;;;;;;;7.33;5.47;;;;;;;6.96;79.77;99060.86;1678876;84;21095;-75
2022/04/23 02:35:11;;;;;;;6.15;5.55;;;;;;;6.91;80.10;99058.39;1672287;84;21145;-75
2022/04/23 02:37:42;;;;;;;7.97;4.97;;;;;;;6.88;80.33;99054.55;1674486;84;21046;-75
2022/04/23 02:40:09;;;;;;;7.30;5.58;;;;;;;6.87;80.61;99060.66;1675232;84;22405;-74
2022/04/23 02:42:39;;;;;;;6.30;5.67;;;;;;;6.85;80.86;99062.47;1677281;84;21486;-74
2022/04/23 02:45:07;;;;;;;8.45;5.62;;;;;;;6.83;81.14;99059.89;1675417;84;20983;-74
2022/04/23 02:47:56;;;;;;;5.55;5.08;;;;;;;6.82;81.35;99063.85;1672091;84;21112;-74
2022/04/23 02:50:32;;;;;;;9.28;5.65;;;;;;;6.80;81.48;99063.05;1693046;82;21007;-75
2022/04/23 02:52:59;;;;;;;5.87;5.22;;;;;;;6.76;81.75;99063.58;1713436;83;21156;-74
2022/04/23 02:55:27;;;;;;;7.67;5.30;;;;;;;6.74;81.83;99071.92;1715313;82;21011;-75
2022/04/23 02:57:56;;;;;;;6.58;5.33;;;;;;;6.73;82.01;99069.34;1706387;83;21083;-75
2022/04/23 03:00:22;;;;;;;5.67;5.17;;;;;;;6.70;82.15;99060.66;1716908;82;21220;-74
2022/04/23 03:02:52;;;;;;;6.17;5.58;;;;;;;6.66;82.29;99052.95;1707608;82;21589;-74
2022/04/23 03:05:19;;;;;;;8.68;5.22;;;;;;;6.62;82.43;99053.48;1699242;83;22169;-74
2022/04/23 03:07:50;;;;;;;5.78;5.28;;;;;;;6.61;82.45;99062.22;1707659;82;45379;-75
2022/04/23 03:10:19;;;;;;;5.20;4.80;;;;;;;6.61;82.58;99070.06;1704385;82;21063;-74
2022/04/23 03:12:47;;;;;;;6.87;5.33;;;;;;;6.57;82.56;99055.33;1704544;82;21028;-74
2022/04/23 03:15:18;;;;;;;6.33;5.72;;;;;;;6.56;82.69;99060.62;1715367;83;21185;-74
2022/04/23 03:17:45;;;;;;;6.30;5.08;;;;;;;6.54;82.86;99067.62;1715842;82;21143;-74
2022/04/23 03:20:14;;;;;;;7.10;5.58;;;;;;;6.51;82.83;99056.81;1686887;83;21074;-74
2022/04/23 03:22:43;;;;;;;6.35;5.22;;;;;;;6.51;82.88;99051.59;1702430;83;21473;-74
2022/04/23 03:25:11;;;;;;;7.60;5.58;;;;;;;6.49;82.92;99056.86;1703499;82;21073;-75
2022/04/23 03:27:39;;;;;;;6.92;5.20;;;;;;;6.47;82.88;99045.59;1692405;82;21684;-74
2022/04/23 03:30:08;;;;;;;7.58;5.00;;;;;;;6.48;82.91;99050.36;1695588;83;21604;-74
2022/04/23 03:32:36;;;;;;;5.90;5.30;;;;;;;6.48;82.86;99050.36;1697574;83;21212;-74
2022/04/23 03:35:08;;;;;;;6.60;5.53;;;;;;;6.46;82.92;99050.85;1701792;82;21106;-73
2022/04/23 03:37:36;;;;;;;6.05;5.35;;;;;;;6.44;82.92;99055.23;1656923;85;22531;-74
2022/04/23 03:40:08;;;;;;;6.17;5.12;;;;;;;6.43;83.00;99053.53;1647033;84;21215;-73
2022/04/23 03:42:35;;;;;;;5.95;5.35;;;;;;;6.45;83.04;99053.89;1715027;82;21098;-75
2022/04/23 03:45:04;;;;;;;5.97;5.37;;;;;;;6.44;83.14;99048.70;1700114;83;21110;-74
2022/04/23 03:47:34;;;;;;;6.95;5.60;;;;;;;6.41;83.19;99037.89;1690627;83;21236;-74
2022/04/23 03:50:07;;;;;;;8.65;5.47;;;;;;;6.39;83.23;99042.73;1677453;83;21172;-74
2022/04/23 03:52:34;;;;;;;5.28;4.65;;;;;;;6.39;83.35;99041.42;1683435;84;21688;-75
2022/04/23 03:55:01;;;;;;;10.03;5.10;;;;;;;6.37;83.41;99028.43;1672507;84;21592;-74
2022/04/23 03:57:29;;;;;;;9.50;5.60;;;;;;;6.37;83.48;99032.78;1659644;85;21083;-74
2022/04/23 03:59:56;;;;;;;5.60;5.10;;;;;;;6.36;83.56;99036.30;1655227;86;21098;-75
2022/04/23 04:02:24;;;;;;;5.80;5.08;;;;;;;6.37;83.56;99052.38;1626470;87;21015;-74
2022/04/23 04:04:52;;;;;;;6.30;5.00;;;;;;;6.36;83.64;99037.61;1623404;87;21198;-75
2022/04/23 04:07:19;;;;;;;10.50;5.83;;;;;;;6.33;83.71;99047.22;1628437;87;21150;-74
2022/04/23 04:09:46;;;;;;;7.97;5.53;;;;;;;6.31;83.84;99041.18;1629435;87;21051;-75
2022/04/23 04:12:14;;;;;;;5.17;4.67;;;;;;;6.32;83.86;99035.50;1670720;84;21158;-74
2022/04/23 04:14:43;;;;;;;6.10;5.50;;;;;;;6.32;83.92;99037.69;1674914;84;21646;-74
2022/04/23 04:17:14;;;;;;;7.87;5.17;;;;;;;6.30;84.04;99043.41;1672827;84;21058;-75
2022/04/23 04:19:40;;;;;;;7.10;5.70;;;;;;;6.29;84.17;99039.06;1681938;84;21203;-74
2022/04/23 04:22:08;;;;;;;7.10;5.90;;;;;;;6.29;84.24;99032.98;1666839;84;21611;-74
2022/04/23 04:24:37;;;;;;;6.05;5.10;;;;;;;6.30;84.29;99032.95;1656521;85;21143;-74
2022/04/23 04:27:04;;;;;;;7.30;5.58;;;;;;;6.29;84.24;99028.61;1656399;84;21177;-74
2022/04/23 04:29:31;;;;;;;6.53;5.15;;;;;;;6.29;84.24;99016.85;1625870;86;21545;-74
2022/04/23 04:32:00;;;;;;;7.58;5.78;;;;;;;6.32;84.30;99018.09;1631571;87;21068;-75
2022/04/23 04:34:29;;;;;;;11.00;6.25;;;;;;;6.35;84.35;99019.75;1628569;87;21063;-75
2022/04/23 04:37:07;;;;;;;8.43;6.25;;;;;;;6.37;84.21;99011.88;1648779;86;21087;-75
2022/04/23 04:39:38;;;;;;;6.97;5.62;;;;;;;6.37;84.23;99021.02;1644646;85;21153;-74
2022/04/23 04:42:06;;;;;;;10.43;5.97;;;;;;;6.40;84.22;99027.48;1636132;86;21134;-74
2022/04/23 04:44:35;;;;;;;10.68;6.92;;;;;;;6.43;84.05;99019.56;1633216;86;21144;-75
2022/04/23 04:47:04;;;;;;;8.63;6.12;;;;;;;6.47;83.97;99013.34;1642554;86;21146;-74
2022/04/23 04:49:32;;;;;;;9.30;5.95;;;;;;;6.48;83.82;99015.92;1646084;86;21498;-74
2022/04/23 04:51:58;;;;;;;6.33;5.65;;;;;;;6.52;83.92;99015.39;1635571;86;21280;-75
2022/04/23 04:54:26;;;;;;;7.47;5.90;;;;;;;6.58;83.78;99017.85;1688082;83;21189;-74
2022/04/23 04:56:56;;;;;;;8.33;6.75;;;;;;;6.62;83.63;99007.74;1692256;83;21194;-74
2022/04/23 04:59:24;;;;;;;8.45;5.45;;;;;;;6.63;83.42;99012.05;1689216;83;21737;-74
2022/04/23 05:01:52;;;;;;;7.58;5.90;;;;;;;6.66;83.36;99005.44;1695591;83;20931;-75
2022/04/23 05:04:20;;;;;;;7.37;6.40;;;;;;;6.71;83.29;99013.17;1687999;83;21040;-73
2022/04/23 05:06:48;;;;;;;8.13;5.95;;;;;;;6.75;83.19;99010.02;1690650;83;21000;-74
2022/04/23 05:09:16;;;;;;;6.70;6.00;;;;;;;6.80;83.28;99002.91;1697840;83;21090;-75
2022/04/23 05:11:44;;;;;;;6.42;5.60;;;;;;;6.84;83.09;99011.94;1692575;83;21632;-74
2022/04/23 05:14:13;;;;;;;6.53;5.92;;;;;;;6.93;83.11;99015.20;1694743;82;21062;-75
2022/04/23 05:16:39;;;;;;;7.12;6.12;;;;;;;6.99;82.91;99009.35;1688542;83;21655;-75
2022/04/23 05:19:06;;;;;;;9.00;6.25;;;;;;;7.03;82.75;99012.73;1701294;83;21558;-75
2022/04/23 05:21:33;;;;;;;9.10;6.37;;;;;;;7.05;82.60;99003.08;1701920;83;21945;-74
2022/04/23 05:24:00;;;;;;;6.30;5.55;;;;;;;7.10;82.51;99005.56;1691707;83;21515;-75
2022/04/23 05:26:28;;;;;;;6.95;6.25;;;;;;;7.13;82.23;99003.72;1686083;83;21501;-75
2022/04/23 05:28:57;;;;;;;10.23;6.25;;;;;;;7.14;82.01;99005.41;1685917;83;21064;-74
2022/04/23 05:31:25;;;;;;;7.60;6.15;;;;;;;7.16;82.10;98993.59;1685158;84;21099;-75
2022/04/23 05:33:52;;;;;;;10.20;6.55;;;;;;;7.19;82.00;98991.74;1688614;83;21143;-74
2022/04/23 05:36:19;;;;;;;9.38;6.90;;;;;;;7.22;81.78;98984.27;1689886;83;21074;-74
2022/04/23 05:38:46;;;;;;;6.87;6.28;;;;;;;7.24;81.54;98991.61;1696723;82;21083;-74
2022/04/23 05:41:12;;;;;;;9.90;6.30;;;;;;;7.25;81.69;98986.80;1685199;83;21086;-74
2022/04/23 05:43:39;;;;;;;7.83;6.40;;;;;;;7.28;81.66;98989.33;1697828;83;21078;-73
2022/04/23 05:46:07;;;;;;;8.30;5.90;;;;;;;7.33;81.43;98983.51;1693069;83;21134;-74
2022/04/23 05:48:37;;;;;;;6.90;6.20;;;;;;;7.38;81.29;98990.77;1690897;83;21015;-74
2022/04/23 05:51:03;;;;;;;9.28;6.17;;;;;;;7.40;81.19;98983.72;1682379;83;20927;-75
2022/04/23 05:53:31;;;;;;;6.78;5.85;;;;;;;7.43;81.20;98982.75;1692332;83;21050;-76
2022/04/23 05:55:58;;;;;;;9.80;6.65;;;;;;;7.48;81.35;98980.88;1688208;83;21111;-75
2022/04/23 05:58:26;;;;;;;13.18;6.30;;;;;;;7.55;81.45;98986.33;1695973;83;21162;-76
2022/04/23 06:00:53;;;;;;;7.28;6.40;;;;;;;7.63;81.39;98984.77;1693998;83;21099;-75
2022/04/23 06:03:20;;;;;;;9.08;6.90;;;;;;;7.68;81.00;98980.23;1687276;83;21118;-75
2022/04/23 06:05:50;;;;;;;7.62;6.25;;;;;;;7.70;80.56;98981.07;1703960;83;21051;-73
2022/04/23 06:08:17;;;;;;;7.67;6.67;;;;;;;7.74;80.32;98974.81;1697417;83;20955;-73
2022/04/23 06:10:44;;;;;;;7.05;6.30;;;;;;;7.79;80.19;98977.30;1697891;83;21146;-73
2022/04/23 06:13:11;;;;;;;9.55;6.47;;;;;;;7.83;80.10;98972.81;1713444;83;21028;-74
2022/04/23 06:15:39;;;;;;;10.80;6.58;;;;;;;7.92;79.93;98985.63;1691715;83;21132;-75
2022/04/23 06:18:06;;;;;;;9.70;6.45;;;;;;;8.02;79.99;98966.08;1693600;83;21129;-74
2022/04/23 06:20:33;;;;;;;9.90;6.50;;;;;;;8.16;79.81;98970.39;1708705;83;21599;-74
2022/04/23 06:23:04;;;;;;;6.95;6.25;;;;;;;8.30;79.55;98965.14;1683563;83;21618;-74
2022/04/23 06:25:32;;;;;;;8.95;6.53;;;;;;;8.43;78.88;98966.46;1690324;83;21177;-75
2022/04/23 06:27:59;;;;;;;9.73;7.75;;;;;;;8.53;78.73;98970.47;1706242;83;21220;-75
2022/04/23 06:30:27;;;;;;;8.25;7.35;;;;;;;8.64;77.43;98962.67;1685138;83;21043;-74
2022/04/23 06:32:55;;;;;;;9.03;6.83;;;;;;;8.69;77.47;98955.50;1693685;83;20959;-74
2022/04/23 06:35:21;;;;;;;10.60;7.22;;;;;;;8.76;77.24;98952.20;1704481;83;21113;-74
2022/04/23 06:37:48;;;;;;;7.45;6.72;;;;;;;8.80;76.98;98952.04;1694609;83;22280;-74
2022/04/23 06:40:14;;;;;;;8.78;6.70;;;;;;;8.90;76.56;98953.41;1709308;83;21548;-74
2022/04/23 06:42:42;;;;;;;8.55;6.80;;;;;;;8.97;75.57;98947.48;1685948;83;21051;-73
2022/04/23 06:45:10;;;;;;;9.80;7.17;;;;;;;9.03;75.82;98945.11;1692788;83;21083;-75
2022/04/23 06:47:39;;;;;;;8.40;6.70;;;;;;;9.13;75.54;98939.91;1691764;83;21065;-74
2022/04/23 06:50:07;;;;;;;8.18;6.33;;;;;;;9.24;74.97;98944.27;1680918;83;21174;-74
2022/04/23 06:52:34;;;;;;;8.38;7.10;;;;;;;9.34;74.84;98944.77;1684544;84;21127;-75
2022/04/23 06:55:04;;;;;;;7.15;6.28;;;;;;;9.46;74.65;98940.81;1692159;83;21530;-75
2022/04/23 06:57:31;;;;;;;9.30;6.78;;;;;;;9.56;74.11;98943.47;1673674;84;21134;-74
2022/04/23 07:00:01;;;;;;;9.65;6.62;;;;;;;9.64;73.57;98938.77;1669094;85;21156;-77
2022/04/23 07:02:30;;;;;;;9.90;6.50;;;;;;;9.70;73.24;98937.69;1709739;82;21126;-74
2022/04/23 07:04:56;;;;;;;9.93;6.67;;;;;;;9.73;72.49;98934.06;1687629;83;21109;-74
2022/04/23 07:07:24;;;;;;;6.90;6.20;;;;;;;9.73;71.46;98935.38;1717144;82;21675;-75
2022/04/23 07:09:52;;;;;;;6.67;5.97;;;;;;;9.72;71.29;98927.97;1718837;82;21360;-74
2022/04/23 07:12:19;;;;;;;10.05;6.03;;;;;;;9.74;71.12;98931.84;1711651;83;21174;-74
2022/04/23 07:14:47;;;;;;;7.58;6.37;;;;;;;9.77;71.11;98929.95;1713339;83;21054;-74
2022/04/23 07:17:15;;;;;;;8.65;6.28;;;;;;;9.86;71.23;98926.08;1659326;84;21059;-75
2022/04/23 07:19:43;;;;;;;7.85;6.80;;;;;;;9.99;71.11;98918.09;1692584;83;21609;-75
2022/04/23 07:22:11;;;;;;;6.72;5.95;;;;;;;10.14;70.52;98906.55;1679672;84;21244;-76
2022/04/23 07:24:38;;;;;;;7.62;6.17;;;;;;;10.28;70.01;98910.73;1697001;83;21145;-74
2022/04/23 07:27:06;;;;;;;8.48;6.05;;;;;;;10.43;69.53;98914.52;1678488;83;21091;-75
2022/04/23 07:29:33;;;;;;;7.62;5.87;;;;;;;10.58;69.66;98908.57;1681616;84;21639;-75
2022/04/23 07:32:02;;;;;;;9.08;5.70;;;;;;;10.73;68.46;98913.61;1687004;84;21835;-75
2022/04/23 07:37:28;;;;;;;6.67;5.90;;;;;;;10.96;66.40;98901.17;1683149;84;21071;-74
2022/04/23 07:39:59;;;;;;;6.20;5.60;;;;;;;11.08;66.05;98894.05;1679864;83;21157;-75
2022/04/23 07:42:27;;;;;;;5.62;5.10;;;;;;;11.22;65.66;98903.08;1686681;84;21099;-75
2022/04/23 07:44:56;;;;;;;9.00;5.40;;;;;;;11.36;65.23;98896.67;1658233;85;21119;-74
2022/04/23 07:47:24;;;;;;;6.22;5.62;;;;;;;11.48;64.70;98887.33;1662717;84;21539;-75
2022/04/23 07:49:50;;;;;;;16.93;5.60;;;;;;;11.56;63.57;98880.38;1682991;84;21140;-75
2022/04/23 07:52:18;;;;;;;9.43;5.70;;;;;;;11.66;63.64;98879.00;1686787;84;21119;-75
2022/04/23 07:54:44;;;;;;;7.60;5.45;;;;;;;11.79;64.07;98891.12;1686823;84;21078;-74
2022/04/23 07:57:12;;;;;;;8.65;5.58;;;;;;;11.93;63.37;98879.91;1697004;83;21487;-75
2022/04/23 07:59:41;;;;;;;10.43;4.62;;;;;;;12.03;62.19;98877.19;1684080;83;21163;-74
2022/04/23 08:02:10;;;;;;;9.50;4.58;;;;;;;12.08;61.06;98872.06;1680269;84;21665;-75
2022/04/23 08:04:38;;;;;;;5.60;4.95;;;;;;;12.12;60.75;98866.19;1676187;84;21922;-75
2022/04/23 08:07:05;;;;;;;5.12;4.62;;;;;;;12.17;60.73;98862.84;1674580;84;21647;-76
2022/04/23 08:09:39;;;;;;;4.97;4.47;;;;;;;12.24;60.86;98868.19;1631212;86;21083;-75
2022/04/23 08:12:09;;;;;;;7.33;4.92;;;;;;;12.35;60.60;98869.41;1675335;84;21096;-74
2022/04/23 08:14:38;;;;;;;6.10;4.47;;;;;;;12.43;58.83;98864.58;1685569;84;22039;-74
2022/04/23 08:17:06;;;;;;;4.87;4.37;;;;;;;12.50;59.87;98856.72;1678236;84;21151;-74
2022/04/23 08:19:34;;;;;;;5.00;4.30;;;;;;;12.64;58.48;98858.61;1664285;84;21038;-74
2022/04/23 08:22:00;;;;;;;5.42;4.75;;;;;;;12.76;58.92;98851.82;1685164;84;21044;-74
2022/04/23 08:24:31;;;;;;;4.92;4.42;;;;;;;12.93;59.54;98849.13;1683804;84;21029;-74
2022/04/23 08:26:57;;;;;;;5.03;4.50;;;;;;;13.09;57.13;98848.28;1670850;84;21204;-75
2022/04/23 08:32:11;;;;;;;7.37;4.67;;;;;;;13.34;58.03;98850.43;1656199;84;21560;-74
2022/04/23 08:34:39;;;;;;;5.03;4.45;;;;;;;13.43;56.21;98835.84;1669873;84;21053;-74
2022/04/23 08:37:06;;;;;;;5.00;4.60;;;;;;;13.46;55.11;98835.66;1665034;84;21978;-73
2022/04/23 08:39:34;;;;;;;4.87;4.40;;;;;;;13.52;57.30;98827.39;1638857;85;21495;-72
2022/04/23 08:42:02;;;;;;;4.65;4.25;;;;;;;13.59;56.87;98828.73;1670619;84;21244;-74
2022/04/23 08:44:29;;;;;;;5.00;4.50;;;;;;;13.68;57.66;98824.70;1675794;84;21100;-74
2022/04/23 08:46:58;;;;;;;6.92;4.53;;;;;;;13.79;57.09;98810.87;1675964;84;21054;-73
2022/04/23 08:49:35;;;;;;;13.35;4.85;;;;;;;13.90;55.84;98822.95;1666103;84;21564;-75
2022/04/23 08:52:19;;;;;;;4.45;3.85;;;;;;;13.96;55.65;98815.15;1677247;84;21263;-74
2022/04/23 08:54:46;;;;;;;5.28;3.80;;;;;;;13.99;55.75;98813.17;1677459;84;21618;-74
2022/04/23 08:57:13;;;;;;;4.70;3.70;;;;;;;14.06;55.50;98813.17;1661601;82;21217;-74
2022/04/23 08:59:42;;;;;;;4.00;3.60;;;;;;;14.10;53.02;98797.96;1709418;83;21118;-74
2022/04/23 09:02:12;;;;;;;4.22;3.83;;;;;;;14.12;52.74;98799.58;1694393;82;21636;-75
2022/04/23 09:04:40;;;;;;;17.87;4.85;;;;;;;14.18;54.12;98801.48;1704663;83;21131;-73
2022/04/23 09:07:22;;;;;;;5.70;3.45;;;;;;;14.27;52.09;98807.52;1715675;83;21493;-74
2022/04/23 09:09:52;;;;;;;5.58;3.47;;;;;;;14.29;51.85;98800.36;1718303;83;22318;-74
2022/04/23 09:12:22;;;;;;;6.50;3.60;;;;;;;14.31;52.17;98793.17;1707489;81;21601;-75
2022/04/23 09:14:49;;;;;;;11.60;4.08;;;;;;;14.38;51.83;98789.19;1693054;83;21145;-74
2022/04/23 09:25:46;;;;;;;33.65;5.00;;;;;;;14.32;49.91;98798.81;1712250;83;21012;-75
2022/04/23 09:28:21;;;;;;;4.80;3.35;;;;;;;14.24;49.44;98786.08;1693271;83;21006;-75
2022/04/23 09:30:51;;;;;;;4.33;3.70;;;;;;;14.20;50.08;98775.77;1670774;84;21602;-73
2022/04/23 09:33:24;;;;;;;5.53;3.25;;;;;;;14.17;50.21;98764.05;1697186;83;21109;-75
2022/04/23 09:36:01;;;;;;;4.85;3.67;;;;;;;14.13;50.22;98792.01;1695947;83;21817;-74
2022/04/23 09:38:30;;;;;;;3.33;3.10;;;;;;;14.11;51.10;98768.77;1690507;83;21083;-74
2022/04/23 09:41:15;;;;;;;4.00;3.50;;;;;;;14.15;51.47;98767.27;1695466;83;21047;-74
2022/04/23 09:43:32;;;;;;;5.83;3.45;;;;;;;14.23;52.17;98765.00;1678670;83;21138;-74
2022/04/23 09:46:04;;;;;;;4.15;3.42;;;;;;;14.33;52.90;98759.52;1693830;82;21109;-74
2022/04/23 09:48:32;;;;;;;3.87;3.40;;;;;;;14.47;52.58;98767.91;1713646;83;21117;-74
2022/04/23 09:50:59;;;;;;;3.58;3.27;;;;;;;14.63;52.00;98762.55;1713042;83;21055;-74
2022/04/23 09:53:31;;;;;;;5.55;3.70;;;;;;;14.78;52.25;98756.27;1719282;82;21572;-74
2022/04/23 09:56:05;;;;;;;3.30;3.10;;;;;;;14.96;51.60;98748.08;1715093;82;21992;-74
2022/04/23 09:58:33;;;;;;;5.40;3.60;;;;;;;15.09;51.56;98750.78;1681057;83;21070;-74
2022/04/23 10:01:00;;;;;;;4.15;3.37;;;;;;;15.12;50.25;98747.94;1696125;83;21165;-74
2022/04/23 10:03:31;;;;;;;4.03;2.92;;;;;;;15.03;48.91;98748.91;1707239;83;21011;-74
2022/04/23 10:06:00;;;;;;;3.42;3.12;;;;;;;14.89;49.28;98745.45;1692718;83;21588;-74
2022/04/23 10:08:35;;;;;;;7.10;3.22;;;;;;;14.77;49.65;98739.99;1682265;84;21186;-74
2022/04/23 10:11:29;;;;;;;;;;;;;;;14.70;50.10;98747.96;1682001;84;21203;-73
2022/04/23 10:14:01;;;;;;;4.20;2.70;;;;;;;14.70;49.55;98737.38;1675501;84;20984;-74
2022/04/23 10:16:32;;;;;;;6.45;2.55;;;;;;;14.72;48.92;98731.50;1676605;84;21065;-74
2022/04/23 10:18:59;;;;;;;2.50;2.30;;;;;;;14.78;48.01;98727.14;1668967;84;21128;-74
2022/04/23 10:22:03;;;;;;;3.85;2.85;;;;;;;14.82;48.45;98723.33;1677849;84;21085;-75
2022/04/23 10:24:50;;;;;;;4.28;2.83;;;;;;;14.92;46.93;98716.12;1682440;84;21635;-75
2022/04/23 10:27:18;;;;;;;3.22;2.65;;;;;;;15.03;47.24;98717.61;1684146;84;21052;-75
2022/04/23 10:29:50;;;;;;;7.62;2.90;;;;;;;15.15;47.04;98716.78;1677732;84;21081;-75
2022/04/23 10:32:20;;;;;;;2.80;2.60;;;;;;;15.26;45.91;98712.57;1682326;84;21235;-75
2022/04/23 10:34:47;;;;;;;2.20;2.00;;;;;;;15.36;46.50;98694.61;1682213;84;21596;-75
2022/04/23 10:37:24;;;;;;;15.32;2.65;;;;;;;15.48;46.00;98692.09;1680816;84;21196;-74
2022/04/23 10:39:59;;;;;;;2.95;2.20;;;;;;;15.64;45.40;98690.58;1678967;84;21912;-75
2022/04/23 10:42:28;;;;;;;2.70;2.50;;;;;;;15.78;43.66;98683.86;1678762;84;21670;-75
2022/04/23 10:44:56;;;;;;;6.25;2.15;;;;;;;15.89;42.47;98674.69;1682735;84;21071;-75
2022/04/23 10:47:34;;;;;;;2.20;2.10;;;;;;;15.95;43.81;98686.20;1679605;84;21018;-75
2022/04/23 10:50:21;;;;;;;4.62;2.40;;;;;;;16.05;44.78;98678.91;1676941;84;21627;-74
2022/04/23 10:52:50;;;;;;;5.33;2.00;;;;;;;16.20;43.21;98680.47;1677319;84;21626;-75
2022/04/23 10:55:17;;;;;;;2.98;1.80;;;;;;;16.36;42.87;98680.23;1674756;84;21026;-74
2022/04/23 10:57:53;;;;;;;3.15;2.00;;;;;;;16.50;41.82;98673.92;1668558;84;21119;-76
2022/04/23 11:00:21;;;;;;;5.35;1.85;;;;;;;16.60;41.71;98680.26;1666849;84;21822;-75
2022/04/23 11:02:59;;;;;;;3.25;2.17;;;;;;;16.76;42.71;98661.86;1659265;84;21002;-75
2022/04/23 11:14:44;;;;;;;3.42;2.20;;;;;;;17.38;39.01;98665.66;1685841;83;21114;-75
2022/04/23 11:17:13;;;;;;;1.95;1.85;;;;;;;17.28;39.14;98663.30;1677175;84;21527;-75
2022/04/23 11:19:41;;;;;;;3.10;1.70;;;;;;;17.25;39.14;98654.25;1679737;84;22339;-75
2022/04/23 11:22:12;;;;;;;6.25;2.12;;;;;;;17.27;40.30;98653.16;1658580;84;21134;-75
2022/04/23 11:24:40;;;;;;;2.40;1.95;;;;;;;17.35;39.56;98649.93;1666864;85;21044;-75
2022/04/23 11:27:08;;;;;;;5.20;2.35;;;;;;;17.43;40.37;98656.84;1677803;84;21095;-75
2022/04/23 11:29:35;;;;;;;3.87;1.92;;;;;;;17.58;38.90;98653.45;1680049;84;21134;-75
2022/04/23 11:32:01;;;;;;;4.47;1.85;;;;;;;17.65;38.11;98657.81;1689024;84;21126;-75
2022/04/23 11:34:29;;;;;;;3.77;1.65;;;;;;;17.62;37.83;98640.30;1684507;84;21094;-75
2022/04/23 11:36:56;;;;;;;17.32;2.30;;;;;;;17.58;38.29;98636.66;1654602;86;21067;-75
2022/04/23 11:39:28;;;;;;;7.05;2.12;;;;;;;17.64;38.79;98636.19;1662104;84;21450;-75
2022/04/23 11:41:56;;;;;;;4.50;1.85;;;;;;;17.74;38.21;98635.83;1689081;84;21686;-75
2022/04/23 11:47:17;;;;;;;2.05;1.82;;;;;;;17.79;38.50;98628.34;1682714;84;22282;-74
2022/04/23 11:49:45;;;;;;;3.92;1.70;;;;;;;17.91;38.89;98625.72;1648852;86;21000;-76
2022/04/23 11:52:12;;;;;;;6.17;1.80;;;;;;;18.00;37.65;98619.19;1665954;85;21112;-75
2022/04/23 11:54:44;;;;;;;7.35;1.60;;;;;;;18.05;37.91;98616.13;1661461;84;21087;-76
2022/04/23 11:57:14;;;;;;;4.70;1.60;;;;;;;18.10;38.47;98621.93;1637785;85;21100;-76
2022/04/23 11:59:45;;;;;;;2.77;1.60;;;;;;;18.13;37.72;98612.38;1677727;84;21138;-74
2022/04/23 12:02:26;;;;;;;1.95;1.57;;;;;;;18.20;38.00;98605.58;1686924;84;21130;-77
2022/04/23 12:04:57;;;;;;;3.72;1.70;;;;;;;18.32;37.25;98599.74;1690353;83;21489;-73
2022/04/23 12:07:25;;;;;;;3.02;1.70;;;;;;;18.38;37.43;98599.25;1688808;83;21217;-73
2022/04/23 12:09:55;;;;;;;3.55;1.62;;;;;;;18.48;37.31;98590.52;1700491;83;21098;-74
2022/04/23 12:12:29;;;;;;;4.10;1.67;;;;;;;18.57;36.35;98594.58;1651511;86;21024;-72
2022/04/23 12:15:04;;;;;;;2.65;1.67;;;;;;;18.62;36.64;98592.88;1640008;86;22053;-75